Wetterdaten: Samstag, 15.09.2012
Datum Zeit Temperatur Luftfeuchte Luftdruck Regen Wind Richtung Richtung Sonnenschein Taupunkt Windchill
15.09.2012 00:04 11,1 C 80 % 1012,7 hPa 0,0 l/m 0,0 km/h (0 Bft) W-SW 240 0 min 7,8 C 11,1 C
15.09.2012 00:09 11,1 C 80 % 1013,7 hPa 0,0 l/m 0,0 km/h (0 Bft) W-SW 240 0 min 7,8 C 11,1 C
15.09.2012 00:14 11,1 C 80 % 1013,7 hPa 0,0 l/m 0,0 km/h (0 Bft) W-SW 245 0 min 7,8 C 11,1 C
15.09.2012 00:19 11,1 C 79 % 1013,7 hPa 0,0 l/m 0,0 km/h (0 Bft) W-SW 245 0 min 7,6 C 11,1 C
15.09.2012 00:23 11,0 C 79 % 1012,7 hPa 0,0 l/m 0,0 km/h (0 Bft) W-SW 240 0 min 7,5 C 11,0 C
15.09.2012 00:29 10,9 C 79 % 1012,7 hPa 0,0 l/m 0,0 km/h (0 Bft) W-SW 240 0 min 7,4 C 10,9 C
15.09.2012 00:34 10,8 C 79 % 1013,7 hPa 0,0 l/m 0,0 km/h (0 Bft) W-SW 240 0 min 7,3 C 10,8 C
15.09.2012 00:39 10,7 C 79 % 1013,7 hPa 0,0 l/m 0,0 km/h (0 Bft) W-SW 240 0 min 7,2 C 10,7 C
15.09.2012 00:44 10,8 C 79 % 1013,7 hPa 0,0 l/m 0,0 km/h (0 Bft) W-SW 240 0 min 7,3 C 10,8 C
15.09.2012 00:49 10,7 C 79 % 1013,7 hPa 0,0 l/m 0,0 km/h (0 Bft) W-SW 240 0 min 7,2 C 10,7 C
15.09.2012 00:54 10,7 C 79 % 1013,7 hPa 0,0 l/m 0,0 km/h (0 Bft) W-SW 240 0 min 7,2 C 10,7 C
15.09.2012 00:59 10,5 C 79 % 1013,7 hPa 0,0 l/m 0,0 km/h (0 Bft) W-SW 240 0 min 7,0 C 10,5 C
15.09.2012 01:04 10,4 C 79 % 1013,7 hPa 0,0 l/m 0,0 km/h (0 Bft) W-SW 240 0 min 6,9 C 10,4 C
15.09.2012 01:09 10,3 C 79 % 1013,7 hPa 0,0 l/m 0,0 km/h (0 Bft) W-SW 240 0 min 6,8 C 10,3 C
15.09.2012 01:14 10,3 C 79 % 1013,7 hPa 0,0 l/m 0,0 km/h (0 Bft) W-SW 240 0 min 6,8 C 10,3 C
15.09.2012 01:19 10,3 C 80 % 1013,7 hPa 0,0 l/m 0,1 km/h (0 Bft) W-SW 245 0 min 7,0 C 10,3 C
15.09.2012 01:24 10,4 C 80 % 1013,7 hPa 0,0 l/m 6,4 km/h (2 Bft) W-SW 250 0 min 7,1 C 10,4 C
15.09.2012 01:29 10,3 C 81 % 1013,7 hPa 0,0 l/m 5,0 km/h (1 Bft) W 275 0 min 7,2 C 10,3 C
15.09.2012 01:34 10,4 C 81 % 1013,7 hPa 0,0 l/m 0,3 km/h (0 Bft) W 260 0 min 7,3 C 10,4 C
15.09.2012 01:39 10,4 C 82 % 1013,7 hPa 0,0 l/m 0,0 km/h (0 Bft) W 280 0 min 7,5 C 10,4 C
15.09.2012 01:44 10,5 C 82 % 1013,7 hPa 0,0 l/m 0,0 km/h (0 Bft) W 260 0 min 7,6 C 10,5 C
15.09.2012 01:49 10,4 C 82 % 1013,7 hPa 0,0 l/m 0,0 km/h (0 Bft) W 280 0 min 7,5 C 10,4 C
15.09.2012 01:54 10,3 C 82 % 1013,7 hPa 0,0 l/m 5,1 km/h (1 Bft) W 275 0 min 7,4 C 10,3 C
15.09.2012 01:59 10,3 C 82 % 1013,7 hPa 0,0 l/m 5,1 km/h (1 Bft) W 275 0 min 7,4 C 10,3 C
15.09.2012 02:04 10,3 C 82 % 1013,7 hPa 0,0 l/m 0,0 km/h (0 Bft) W 260 0 min 7,4 C 10,3 C
15.09.2012 02:09 10,2 C 82 % 1013,7 hPa 0,0 l/m 0,0 km/h (0 Bft) W 260 0 min 7,3 C 10,2 C
15.09.2012 02:14 10,0 C 81 % 1013,7 hPa 0,0 l/m 0,0 km/h (0 Bft) W 260 0 min 6,9 C 10,0 C
15.09.2012 02:19 10,0 C 81 % 1013,7 hPa 0,0 l/m 0,0 km/h (0 Bft) W 275 0 min 6,9 C 10,0 C
15.09.2012 02:24 9,8 C 82 % 1013,7 hPa 0,0 l/m 0,0 km/h (0 Bft) W 270 0 min 6,9 C 9,8 C
15.09.2012 02:29 9,7 C 82 % 1013,7 hPa 0,0 l/m 0,0 km/h (0 Bft) W 275 0 min 6,8 C 9,7 C
15.09.2012 02:34 9,6 C 82 % 1013,7 hPa 0,0 l/m 0,0 km/h (0 Bft) W 270 0 min 6,7 C 9,6 C
15.09.2012 02:39 9,5 C 82 % 1013,7 hPa 0,0 l/m 0,0 km/h (0 Bft) W 270 0 min 6,6 C 9,5 C
15.09.2012 02:44 9,5 C 82 % 1014,7 hPa 0,0 l/m 0,0 km/h (0 Bft) W 270 0 min 6,6 C 9,5 C
15.09.2012 02:49 9,5 C 82 % 1014,7 hPa 0,0 l/m 0,0 km/h (0 Bft) W 270 0 min 6,6 C 9,5 C
15.09.2012 02:54 9,6 C 82 % 1014,7 hPa 0,0 l/m 0,0 km/h (0 Bft) W 270 0 min 6,7 C 9,6 C
15.09.2012 02:59 9,7 C 82 % 1014,7 hPa 0,0 l/m 0,0 km/h (0 Bft) W 270 0 min 6,8 C 9,7 C
15.09.2012 03:04 9,8 C 82 % 1014,7 hPa 0,0 l/m 0,0 km/h (0 Bft) W 270 0 min 6,9 C 9,8 C
15.09.2012 03:09 9,9 C 82 % 1014,7 hPa 0,0 l/m 0,0 km/h (0 Bft) W 270 0 min 7,0 C 9,9 C
15.09.2012 03:14 9,9 C 82 % 1014,7 hPa 0,0 l/m 0,0 km/h (0 Bft) W 270 0 min 7,0 C 9,9 C
15.09.2012 03:19 9,7 C 82 % 1014,7 hPa 0,0 l/m 0,0 km/h (0 Bft) W 265 0 min 6,8 C 9,7 C
15.09.2012 03:24 9,6 C 82 % 1014,7 hPa 0,0 l/m 0,0 km/h (0 Bft) W 265 0 min 6,7 C 9,6 C
15.09.2012 03:29 9,6 C 82 % 1014,7 hPa 0,0 l/m 0,0 km/h (0 Bft) W 265 0 min 6,7 C 9,6 C
15.09.2012 03:34 9,6 C 82 % 1014,7 hPa 0,0 l/m 0,0 km/h (0 Bft) W 265 0 min 6,7 C 9,6 C
15.09.2012 03:39 9,5 C 82 % 1014,7 hPa 0,0 l/m 0,0 km/h (0 Bft) W 265 0 min 6,6 C 9,5 C
15.09.2012 03:44 9,4 C 82 % 1014,7 hPa 0,0 l/m 0,0 km/h (0 Bft) W 275 0 min 6,5 C 9,4 C
15.09.2012 03:49 9,4 C 82 % 1014,7 hPa 0,0 l/m 0,0 km/h (0 Bft) W 275 0 min 6,5 C 9,4 C
15.09.2012 03:54 9,5 C 82 % 1014,7 hPa 0,0 l/m 0,0 km/h (0 Bft) W 270 0 min 6,6 C 9,5 C
15.09.2012 03:59 9,5 C 82 % 1014,7 hPa 0,0 l/m 0,0 km/h (0 Bft) W 270 0 min 6,6 C 9,5 C
15.09.2012 04:04 9,5 C 82 % 1014,7 hPa 0,0 l/m 0,0 km/h (0 Bft) W 270 0 min 6,6 C 9,5 C
15.09.2012 04:09 9,4 C 82 % 1014,7 hPa 0,0 l/m 0,0 km/h (0 Bft) W 270 0 min 6,5 C 9,4 C
15.09.2012 04:14 9,3 C 81 % 1014,7 hPa 0,0 l/m 0,0 km/h (0 Bft) W 270 0 min 6,2 C 9,3 C
15.09.2012 04:19 9,3 C 82 % 1014,7 hPa 0,0 l/m 0,0 km/h (0 Bft) W 270 0 min 6,4 C 9,3 C
15.09.2012 04:24 9,4 C 82 % 1014,7 hPa 0,0 l/m 0,0 km/h (0 Bft) W 270 0 min 6,5 C 9,4 C
15.09.2012 04:29 9,5 C 82 % 1014,7 hPa 0,0 l/m 0,0 km/h (0 Bft) W 270 0 min 6,6 C 9,5 C
15.09.2012 04:34 9,5 C 82 % 1014,7 hPa 0,0 l/m 0,0 km/h (0 Bft) W 270 0 min 6,6 C 9,5 C
15.09.2012 04:39 9,6 C 82 % 1014,7 hPa 0,0 l/m 0,0 km/h (0 Bft) W 270 0 min 6,7 C 9,6 C
15.09.2012 04:43 9,6 C 82 % 1014,7 hPa 0,0 l/m 0,0 km/h (0 Bft) W 270 0 min 6,7 C 9,6 C
15.09.2012 04:48 9,7 C 82 % 1014,7 hPa 0,0 l/m 0,0 km/h (0 Bft) W 270 0 min 6,8 C 9,7 C
15.09.2012 04:53 9,7 C 82 % 1014,7 hPa 0,0 l/m 0,0 km/h (0 Bft) W 270 0 min 6,8 C 9,7 C
15.09.2012 04:58 9,7 C 82 % 1014,7 hPa 0,0 l/m 0,0 km/h (0 Bft) W 270 0 min 6,8 C 9,7 C
15.09.2012 05:04 9,7 C 82 % 1014,7 hPa 0,0 l/m 0,0 km/h (0 Bft) W 270 0 min 6,8 C 9,7 C
15.09.2012 05:09 9,8 C 82 % 1014,7 hPa 0,0 l/m 0,0 km/h (0 Bft) W 270 0 min 6,9 C 9,8 C
15.09.2012 05:14 9,8 C 82 % 1014,7 hPa 0,0 l/m 0,0 km/h (0 Bft) W 270 0 min 6,9 C 9,8 C
15.09.2012 05:19 9,8 C 82 % 1014,7 hPa 0,0 l/m 0,0 km/h (0 Bft) W 270 0 min 6,9 C 9,8 C
15.09.2012 05:24 9,8 C 82 % 1014,7 hPa 0,0 l/m 0,0 km/h (0 Bft) W 270 0 min 6,9 C 9,8 C
15.09.2012 05:29 9,9 C 82 % 1014,7 hPa 0,0 l/m 0,0 km/h (0 Bft) W 270 0 min 7,0 C 9,9 C
15.09.2012 05:34 9,9 C 82 % 1014,7 hPa 0,0 l/m 0,0 km/h (0 Bft) W 270 0 min 7,0 C 9,9 C
15.09.2012 05:39 10,0 C 81 % 1014,7 hPa 0,0 l/m 0,0 km/h (0 Bft) W 270 0 min 6,9 C 10,0 C
15.09.2012 05:44 10,0 C 81 % 1014,7 hPa 0,0 l/m 0,0 km/h (0 Bft) W 265 0 min 6,9 C 10,0 C
15.09.2012 05:49 10,0 C 81 % 1014,7 hPa 0,0 l/m 0,0 km/h (0 Bft) W 265 0 min 6,9 C 10,0 C
15.09.2012 05:54 10,0 C 81 % 1014,7 hPa 0,4 l/m 0,0 km/h (0 Bft) W 265 0 min 6,9 C 10,0 C
15.09.2012 05:59 10,0 C 81 % 1014,7 hPa 0,0 l/m 0,0 km/h (0 Bft) W 265 0 min 6,9 C 10,0 C
15.09.2012 06:04 10,0 C 81 % 1014,7 hPa 0,0 l/m 0,0 km/h (0 Bft) W 265 0 min 6,9 C 10,0 C
15.09.2012 06:09 10,0 C 81 % 1014,7 hPa 0,0 l/m 0,0 km/h (0 Bft) W 265 0 min 6,9 C 10,0 C
15.09.2012 06:14 10,0 C 81 % 1014,7 hPa 0,0 l/m 0,0 km/h (0 Bft) W 265 0 min 6,9 C 10,0 C
15.09.2012 06:19 10,0 C 81 % 1015,7 hPa 0,0 l/m 0,0 km/h (0 Bft) W 265 0 min 6,9 C 10,0 C
15.09.2012 06:24 10,0 C 81 % 1015,7 hPa 0,0 l/m 0,0 km/h (0 Bft) W 265 0 min 6,9 C 10,0 C
15.09.2012 06:29 10,0 C 81 % 1015,7 hPa 0,0 l/m 0,0 km/h (0 Bft) W 265 0 min 6,9 C 10,0 C
15.09.2012 06:34 10,0 C 81 % 1015,7 hPa 0,0 l/m 0,0 km/h (0 Bft) W 265 0 min 6,9 C 10,0 C
15.09.2012 06:39 10,0 C 81 % 1015,7 hPa 0,0 l/m 0,0 km/h (0 Bft) W 265 0 min 6,9 C 10,0 C
15.09.2012 06:44 10,0 C 81 % 1015,7 hPa 0,0 l/m 0,0 km/h (0 Bft) W 265 0 min 6,9 C 10,0 C
15.09.2012 06:49 10,0 C 81 % 1015,7 hPa 0,0 l/m 0,0 km/h (0 Bft) W 265 0 min 6,9 C 10,0 C
15.09.2012 06:54 10,0 C 81 % 1015,7 hPa 0,0 l/m 0,0 km/h (0 Bft) W 265 0 min 6,9 C 10,0 C
15.09.2012 06:59 10,1 C 81 % 1015,7 hPa 0,0 l/m 0,0 km/h (0 Bft) W 265 0 min 7,0 C 10,1 C
15.09.2012 07:04 10,1 C 81 % 1015,7 hPa 0,0 l/m 0,0 km/h (0 Bft) W 265 0 min 7,0 C 10,1 C
15.09.2012 07:09 10,1 C 81 % 1015,7 hPa 0,0 l/m 0,0 km/h (0 Bft) W 265 0 min 7,0 C 10,1 C
15.09.2012 07:14 10,2 C 81 % 1015,7 hPa 0,0 l/m 0,0 km/h (0 Bft) W 265 0 min 7,1 C 10,2 C
15.09.2012 07:19 10,2 C 81 % 1015,7 hPa 0,0 l/m 0,0 km/h (0 Bft) W 265 0 min 7,1 C 10,2 C
15.09.2012 07:24 10,2 C 81 % 1015,7 hPa 0,0 l/m 0,0 km/h (0 Bft) W 265 0 min 7,1 C 10,2 C
15.09.2012 07:29 10,2 C 81 % 1015,7 hPa 0,0 l/m 0,0 km/h (0 Bft) W 265 0 min 7,1 C 10,2 C
15.09.2012 07:34 10,2 C 81 % 1015,7 hPa 0,0 l/m 0,0 km/h (0 Bft) W 265 0 min 7,1 C 10,2 C
15.09.2012 07:39 10,3 C 81 % 1015,7 hPa 0,0 l/m 0,0 km/h (0 Bft) W 265 0 min 7,2 C 10,3 C
15.09.2012 07:44 10,4 C 81 % 1015,7 hPa 0,0 l/m 0,0 km/h (0 Bft) W 265 0 min 7,3 C 10,4 C
15.09.2012 07:49 10,4 C 81 % 1015,7 hPa 0,0 l/m 0,0 km/h (0 Bft) W 265 0 min 7,3 C 10,4 C
15.09.2012 07:54 10,5 C 81 % 1015,7 hPa 0,0 l/m 0,0 km/h (0 Bft) W 265 0 min 7,4 C 10,5 C
15.09.2012 07:59 10,6 C 82 % 1015,7 hPa 0,0 l/m 0,0 km/h (0 Bft) W 265 0 min 7,7 C 10,6 C
15.09.2012 08:04 10,8 C 82 % 1016,7 hPa 0,0 l/m 0,0 km/h (0 Bft) W 265 0 min 7,9 C 10,8 C
15.09.2012 08:09 11,0 C 81 % 1016,7 hPa 0,0 l/m 0,0 km/h (0 Bft) W 265 0 min 7,9 C 11,0 C
15.09.2012 08:14 11,2 C 82 % 1016,7 hPa 0,0 l/m 0,0 km/h (0 Bft) W 265 0 min 8,2 C 11,2 C
15.09.2012 08:19 11,3 C 82 % 1016,7 hPa 0,0 l/m 0,6 km/h (0 Bft) W 270 0 min 8,3 C 11,3 C
15.09.2012 08:24 11,6 C 82 % 1016,7 hPa 0,0 l/m 6,5 km/h (2 Bft) W 275 0 min 8,6 C 11,6 C
15.09.2012 08:29 11,7 C 83 % 1016,7 hPa 0,0 l/m 5,8 km/h (2 Bft) W 275 0 min 8,9 C 11,7 C
15.09.2012 08:34 11,8 C 83 % 1016,7 hPa 0,0 l/m 0,0 km/h (0 Bft) W 275 0 min 9,0 C 11,8 C
15.09.2012 08:39 11,9 C 83 % 1016,7 hPa 0,0 l/m 0,0 km/h (0 Bft) W 275 0 min 9,1 C 11,9 C
15.09.2012 08:44 12,1 C 82 % 1016,7 hPa 0,0 l/m 0,0 km/h (0 Bft) W 275 0 min 9,1 C 12,1 C
15.09.2012 08:49 12,1 C 82 % 1016,7 hPa 0,0 l/m 4,3 km/h (1 Bft) W 270 0 min 9,1 C 12,1 C
15.09.2012 08:54 12,1 C 83 % 1016,7 hPa 0,0 l/m 2,8 km/h (1 Bft) W-SW 255 0 min 9,3 C 12,1 C
15.09.2012 08:59 12,1 C 83 % 1016,7 hPa 0,0 l/m 5,7 km/h (1 Bft) SW 235 0 min 9,3 C 12,1 C
15.09.2012 09:04 12,2 C 83 % 1016,7 hPa 0,0 l/m 6,3 km/h (2 Bft) W-SW 240 0 min 9,4 C 12,2 C
15.09.2012 09:09 12,2 C 84 % 1016,7 hPa 0,0 l/m 7,0 km/h (2 Bft) W-SW 245 0 min 9,6 C 11,8 C
15.09.2012 09:14 12,4 C 84 % 1016,7 hPa 0,0 l/m 7,0 km/h (2 Bft) W-SW 240 0 min 9,8 C 12,0 C
15.09.2012 09:19 12,6 C 84 % 1016,7 hPa 0,0 l/m 5,9 km/h (2 Bft) W-SW 240 0 min 10,0 C 12,6 C
15.09.2012 09:24 12,7 C 84 % 1016,7 hPa 0,0 l/m 4,9 km/h (1 Bft) SW 230 0 min 10,1 C 12,7 C
15.09.2012 09:29 13,0 C 83 % 1016,7 hPa 0,0 l/m 5,7 km/h (1 Bft) W-SW 250 0 min 10,2 C 13,0 C
15.09.2012 09:34 13,1 C 83 % 1016,7 hPa 0,0 l/m 5,4 km/h (1 Bft) W-SW 240 0 min 10,3 C 13,1 C
15.09.2012 09:39 13,2 C 83 % 1017,7 hPa 0,0 l/m 7,0 km/h (2 Bft) SW 230 0 min 10,4 C 12,8 C
15.09.2012 09:44 13,4 C 82 % 1017,7 hPa 0,0 l/m 8,4 km/h (2 Bft) SW 230 0 min 10,4 C 12,2 C
15.09.2012 09:49 13,6 C 82 % 1017,7 hPa 0,0 l/m 6,4 km/h (2 Bft) W-SW 245 0 min 10,6 C 13,6 C
15.09.2012 09:54 13,7 C 81 % 1017,7 hPa 0,0 l/m 8,3 km/h (2 Bft) W 265 0 min 10,5 C 12,6 C
15.09.2012 09:59 13,8 C 80 % 1017,7 hPa 0,0 l/m 8,7 km/h (2 Bft) W 270 0 min 10,4 C 12,5 C
15.09.2012 10:04 14,2 C 80 % 1017,7 hPa 0,0 l/m 5,6 km/h (1 Bft) W-SW 255 0 min 10,8 C 14,2 C
15.09.2012 10:09 14,5 C 79 % 1017,7 hPa 0,0 l/m 7,4 km/h (2 Bft) W-SW 250 0 min 10,9 C 13,9 C
15.09.2012 10:14 14,5 C 79 % 1017,7 hPa 0,0 l/m 7,6 km/h (2 Bft) W-SW 240 0 min 10,9 C 13,8 C
15.09.2012 10:19 14,8 C 79 % 1017,7 hPa 0,0 l/m 7,0 km/h (2 Bft) SW 235 0 min 11,2 C 14,5 C
15.09.2012 10:24 15,0 C 77 % 1017,7 hPa 0,0 l/m 6,4 km/h (2 Bft) W-SW 240 0 min 11,0 C 15,0 C
15.09.2012 10:29 15,1 C 77 % 1017,7 hPa 0,0 l/m 5,0 km/h (1 Bft) W-SW 245 0 min 11,1 C 15,1 C
15.09.2012 10:34 15,2 C 76 % 1017,7 hPa 0,0 l/m 12,4 km/h (3 Bft) W 260 0 min 11,0 C 12,3 C
15.09.2012 10:39 15,2 C 74 % 1017,7 hPa 0,0 l/m 11,5 km/h (2 Bft) W 270 0 min 10,6 C 12,7 C
15.09.2012 10:44 15,3 C 74 % 1017,7 hPa 0,0 l/m 10,0 km/h (2 Bft) W 280 0 min 10,7 C 13,4 C
15.09.2012 10:49 15,5 C 73 % 1017,7 hPa 0,0 l/m 10,0 km/h (2 Bft) W-SW 255 0 min 10,7 C 13,7 C
15.09.2012 10:54 15,4 C 72 % 1017,7 hPa 0,0 l/m 9,8 km/h (2 Bft) W 260 0 min 10,4 C 13,6 C
15.09.2012 10:59 15,7 C 73 % 1017,7 hPa 0,0 l/m 8,3 km/h (2 Bft) W 270 0 min 10,9 C 14,7 C
15.09.2012 11:04 15,7 C 73 % 1017,7 hPa 0,0 l/m 9,3 km/h (2 Bft) W 275 0 min 10,9 C 14,2 C
15.09.2012 11:09 15,5 C 71 % 1017,7 hPa 0,0 l/m 9,8 km/h (2 Bft) W-NW 290 0 min 10,3 C 13,8 C
15.09.2012 11:14 15,8 C 72 % 1017,7 hPa 0,0 l/m 1,0 km/h (0 Bft) W 280 0 min 10,8 C 15,8 C
15.09.2012 11:19 16,3 C 72 % 1017,7 hPa 0,0 l/m 1,3 km/h (1 Bft) W-SW 240 0 min 11,2 C 16,3 C
15.09.2012 11:24 16,5 C 71 % 1017,7 hPa 0,0 l/m 14,2 km/h (3 Bft) W 280 0 min 11,2 C 13,3 C
15.09.2012 11:29 16,0 C 69 % 1017,7 hPa 0,0 l/m 6,7 km/h (2 Bft) W 270 0 min 10,3 C 15,8 C
15.09.2012 11:34 16,1 C 70 % 1017,7 hPa 0,0 l/m 7,0 km/h (2 Bft) NW 305 0 min 10,6 C 15,8 C
15.09.2012 11:39 16,4 C 71 % 1017,7 hPa 0,0 l/m 5,4 km/h (1 Bft) W-NW 285 0 min 11,1 C 16,4 C
15.09.2012 11:44 16,6 C 68 % 1017,7 hPa 0,0 l/m 9,3 km/h (2 Bft) W-NW 290 0 min 10,7 C 15,2 C
15.09.2012 11:49 16,5 C 68 % 1017,7 hPa 0,0 l/m 12,1 km/h (2 Bft) W 265 0 min 10,6 C 14,0 C
15.09.2012 11:54 16,3 C 67 % 1017,7 hPa 0,0 l/m 11,2 km/h (2 Bft) W-NW 300 0 min 10,2 C 14,1 C
15.09.2012 11:59 16,3 C 67 % 1017,7 hPa 0,0 l/m 11,3 km/h (2 Bft) W 270 0 min 10,2 C 14,0 C
15.09.2012 12:04 16,7 C 68 % 1017,7 hPa 0,0 l/m 6,5 km/h (2 Bft) W 275 0 min 10,8 C 16,7 C
15.09.2012 12:09 16,9 C 68 % 1017,7 hPa 0,0 l/m 13,3 km/h (3 Bft) NW 315 0 min 11,0 C 14,0 C
15.09.2012 12:14 16,9 C 66 % 1017,7 hPa 0,0 l/m 5,3 km/h (1 Bft) NW 310 0 min 10,5 C 16,9 C
15.09.2012 12:19 16,9 C 65 % 1017,7 hPa 0,0 l/m 9,2 km/h (2 Bft) W 280 0 min 10,3 C 15,6 C
15.09.2012 12:24 17,0 C 64 % 1017,7 hPa 0,0 l/m 10,1 km/h (2 Bft) W 260 0 min 10,1 C 15,3 C
15.09.2012 12:29 17,5 C 64 % 1017,7 hPa 0,0 l/m 9,6 km/h (2 Bft) W 280 0 min 10,6 C 16,0 C
15.09.2012 12:34 17,2 C 62 % 1017,7 hPa 0,0 l/m 6,1 km/h (2 Bft) W-NW 295 0 min 9,9 C 17,2 C
15.09.2012 12:39 16,9 C 63 % 1017,7 hPa 0,0 l/m 0,0 km/h (0 Bft) W-NW 290 0 min 9,8 C 16,9 C
15.09.2012 12:44 16,5 C 64 % 1017,7 hPa 0,0 l/m 9,0 km/h (2 Bft) W 275 0 min 9,7 C 15,2 C
15.09.2012 12:49 16,2 C 65 % 1017,7 hPa 0,0 l/m 0,7 km/h (0 Bft) W 270 0 min 9,6 C 16,2 C
15.09.2012 12:54 16,5 C 65 % 1017,7 hPa 0,0 l/m 6,9 km/h (2 Bft) W-NW 290 0 min 9,9 C 16,2 C
15.09.2012 12:59 16,8 C 65 % 1017,7 hPa 0,0 l/m 5,4 km/h (1 Bft) W 275 0 min 10,2 C 16,8 C
15.09.2012 13:04 17,3 C 63 % 1017,7 hPa 0,0 l/m 3,3 km/h (1 Bft) W 280 0 min 10,2 C 17,3 C
15.09.2012 13:09 17,4 C 60 % 1017,7 hPa 0,0 l/m 9,7 km/h (2 Bft) NW 315 0 min 9,6 C 15,9 C
15.09.2012 13:14 17,2 C 59 % 1017,7 hPa 0,0 l/m 19,8 km/h (3 Bft) NW 315 0 min 9,1 C 12,6 C
15.09.2012 13:19 16,8 C 60 % 1017,7 hPa 0,0 l/m 12,8 km/h (3 Bft) NW 325 0 min 9,0 C 14,1 C
15.09.2012 13:24 17,0 C 60 % 1017,7 hPa 0,0 l/m 9,9 km/h (2 Bft) W 270 0 min 9,2 C 15,4 C
15.09.2012 13:29 17,1 C 59 % 1017,7 hPa 0,0 l/m 10,3 km/h (2 Bft) W-NW 300 0 min 9,0 C 15,3 C
15.09.2012 13:33 17,1 C 58 % 1017,7 hPa 0,0 l/m 9,9 km/h (2 Bft) NW 310 0 min 8,8 C 15,5 C
15.09.2012 13:38 17,2 C 58 % 1017,7 hPa 0,0 l/m 13,1 km/h (3 Bft) NW 315 0 min 8,9 C 14,4 C
15.09.2012 13:44 17,3 C 59 % 1017,7 hPa 0,0 l/m 0,6 km/h (0 Bft) W 280 0 min 9,2 C 17,3 C
15.09.2012 13:49 17,7 C 59 % 1017,7 hPa 0,0 l/m 11,1 km/h (2 Bft) W 280 0 min 9,6 C 15,7 C
15.09.2012 13:54 17,7 C 59 % 1017,7 hPa 0,0 l/m 8,5 km/h (2 Bft) W 280 0 min 9,6 C 16,7 C
15.09.2012 13:59 17,4 C 58 % 1017,7 hPa 0,0 l/m 12,4 km/h (3 Bft) W-NW 295 0 min 9,1 C 14,9 C
15.09.2012 14:04 17,3 C 58 % 1017,7 hPa 0,0 l/m 9,0 km/h (2 Bft) W 280 0 min 9,0 C 16,1 C
15.09.2012 14:09 17,3 C 58 % 1017,7 hPa 0,0 l/m 9,0 km/h (2 Bft) W 280 0 min 9,0 C 16,1 C
15.09.2012 14:14 17,2 C 57 % 1017,7 hPa 0,0 l/m 0,3 km/h (0 Bft) N-NW 335 0 min 8,6 C 17,2 C
15.09.2012 14:19 17,1 C 57 % 1017,7 hPa 0,0 l/m 13,0 km/h (3 Bft) NW 320 0 min 8,5 C 14,4 C
15.09.2012 14:24 17,4 C 57 % 1017,7 hPa 0,0 l/m 5,8 km/h (2 Bft) W-NW 285 0 min 8,8 C 17,4 C
15.09.2012 14:29 17,5 C 57 % 1017,7 hPa 0,0 l/m 13,7 km/h (3 Bft) N-NW 340 0 min 8,9 C 14,6 C
15.09.2012 14:34 17,5 C 56 % 1017,7 hPa 0,0 l/m 12,7 km/h (3 Bft) NW 320 0 min 8,6 C 14,9 C
15.09.2012 14:39 17,7 C 56 % 1017,7 hPa 0,0 l/m 9,8 km/h (2 Bft) W-NW 290 0 min 8,8 C 16,2 C
15.09.2012 14:44 17,7 C 56 % 1017,7 hPa 0,0 l/m 15,7 km/h (3 Bft) NW 305 0 min 8,8 C 14,3 C
15.09.2012 14:49 17,7 C 55 % 1017,7 hPa 0,0 l/m 10,0 km/h (2 Bft) NW 310 0 min 8,5 C 16,1 C
15.09.2012 14:54 17,7 C 55 % 1017,7 hPa 0,0 l/m 9,5 km/h (2 Bft) W 280 0 min 8,5 C 16,3 C
15.09.2012 14:59 17,6 C 56 % 1017,7 hPa 0,0 l/m 10,1 km/h (2 Bft) NW 315 0 min 8,7 C 16,0 C
15.09.2012 15:04 17,6 C 56 % 1017,7 hPa 0,0 l/m 12,3 km/h (3 Bft) NW 305 0 min 8,7 C 15,2 C
15.09.2012 15:09 17,7 C 56 % 1017,7 hPa 0,0 l/m 12,5 km/h (3 Bft) N-NW 330 0 min 8,8 C 15,2 C
15.09.2012 15:14 17,8 C 56 % 1017,7 hPa 0,0 l/m 11,9 km/h (2 Bft) NW 315 0 min 8,9 C 15,5 C
15.09.2012 15:19 18,2 C 56 % 1017,7 hPa 0,0 l/m 0,4 km/h (0 Bft) W 275 0 min 9,3 C 18,2 C
15.09.2012 15:24 18,3 C 55 % 1017,7 hPa 0,0 l/m 11,9 km/h (2 Bft) N-NW 340 0 min 9,1 C 16,1 C
15.09.2012 15:29 18,3 C 55 % 1017,7 hPa 0,0 l/m 13,2 km/h (3 Bft) NW 305 0 min 9,1 C 15,7 C
15.09.2012 15:34 18,1 C 54 % 1017,7 hPa 0,0 l/m 13,6 km/h (3 Bft) NW 315 0 min 8,6 C 15,3 C
15.09.2012 15:39 17,9 C 54 % 1017,7 hPa 0,0 l/m 14,1 km/h (3 Bft) N-NW 330 0 min 8,5 C 15,0 C
15.09.2012 15:44 17,7 C 56 % 1017,7 hPa 0,0 l/m 10,8 km/h (2 Bft) NW 320 0 min 8,8 C 15,8 C
15.09.2012 15:48 17,5 C 55 % 1017,7 hPa 0,0 l/m 18,1 km/h (3 Bft) N-NW 335 0 min 8,4 C 13,4 C
15.09.2012 15:54 17,7 C 55 % 1017,7 hPa 0,0 l/m 1,1 km/h (1 Bft) W 265 0 min 8,5 C 17,7 C
15.09.2012 15:59 17,9 C 56 % 1017,7 hPa 0,0 l/m 8,5 km/h (2 Bft) NW 315 0 min 9,0 C 16,9 C
15.09.2012 16:04 18,2 C 55 % 1017,7 hPa 0,0 l/m 6,6 km/h (2 Bft) W 275 0 min 9,0 C 18,1 C
15.09.2012 16:09 18,3 C 54 % 1017,7 hPa 0,0 l/m 1,5 km/h (1 Bft) W-SW 255 0 min 8,8 C 18,3 C
15.09.2012 16:14 18,4 C 55 % 1017,7 hPa 0,0 l/m 6,0 km/h (2 Bft) W-SW 250 0 min 9,2 C 18,4 C
15.09.2012 16:19 18,6 C 53 % 1017,7 hPa 0,0 l/m 7,9 km/h (2 Bft) W-NW 300 0 min 8,8 C 17,9 C
15.09.2012 16:24 18,5 C 53 % 1017,7 hPa 0,0 l/m 7,0 km/h (2 Bft) W 270 0 min 8,7 C 18,2 C
15.09.2012 16:29 18,4 C 52 % 1017,7 hPa 0,0 l/m 12,3 km/h (3 Bft) W-NW 300 0 min 8,4 C 16,1 C
15.09.2012 16:34 18,8 C 53 % 1017,7 hPa 0,0 l/m 10,8 km/h (2 Bft) W 280 0 min 9,0 C 17,0 C
15.09.2012 16:39 19,1 C 51 % 1017,7 hPa 0,0 l/m 9,6 km/h (2 Bft) NW 320 0 min 8,7 C 17,8 C
15.09.2012 16:44 19,8 C 51 % 1017,7 hPa 0,0 l/m 5,5 km/h (1 Bft) W-SW 250 0 min 9,4 C 19,8 C
15.09.2012 16:49 20,2 C 47 % 1017,7 hPa 0,0 l/m 13,2 km/h (3 Bft) NW 310 0 min 8,5 C 17,9 C
15.09.2012 16:54 20,3 C 49 % 1017,7 hPa 0,0 l/m 11,5 km/h (2 Bft) W-NW 295 0 min 9,2 C 18,5 C
15.09.2012 16:59 20,2 C 49 % 1017,7 hPa 0,0 l/m 10,1 km/h (2 Bft) W-SW 255 0 min 9,1 C 18,8 C
15.09.2012 17:04 19,7 C 49 % 1017,7 hPa 0,0 l/m 11,5 km/h (2 Bft) NW 305 0 min 8,7 C 17,8 C
15.09.2012 17:09 19,7 C 49 % 1017,7 hPa 0,0 l/m 11,5 km/h (2 Bft) NW 305 0 min 8,7 C 17,8 C
15.09.2012 17:14 17,7 C 52 % 1017,7 hPa 0,0 l/m 17,7 km/h (3 Bft) NW 325 0 min 7,7 C 13,8 C
15.09.2012 17:19 17,5 C 53 % 1017,7 hPa 0,0 l/m 10,9 km/h (2 Bft) NW 315 0 min 7,8 C 15,5 C
15.09.2012 17:24 17,1 C 54 % 1017,7 hPa 0,0 l/m 15,6 km/h (3 Bft) N-NW 340 0 min 7,7 C 13,6 C
15.09.2012 17:28 16,8 C 56 % 1017,7 hPa 0,0 l/m 16,1 km/h (3 Bft) N-NW 330 0 min 8,0 C 13,1 C
15.09.2012 17:33 16,8 C 56 % 1017,7 hPa 0,0 l/m 16,1 km/h (3 Bft) N-NW 330 0 min 8,0 C 13,1 C
15.09.2012 17:39 16,5 C 57 % 1017,7 hPa 0,0 l/m 17,4 km/h (3 Bft) NW 325 0 min 8,0 C 12,3 C
15.09.2012 17:44 16,4 C 57 % 1017,7 hPa 0,0 l/m 15,5 km/h (3 Bft) N-NW 330 0 min 7,9 C 12,7 C
15.09.2012 17:49 16,3 C 57 % 1017,7 hPa 0,0 l/m 13,9 km/h (3 Bft) NW 310 0 min 7,8 C 13,1 C
15.09.2012 17:54 16,3 C 57 % 1017,7 hPa 0,0 l/m 11,3 km/h (2 Bft) NW 315 0 min 7,8 C 14,0 C
15.09.2012 17:59 16,1 C 58 % 1017,7 hPa 0,0 l/m 11,9 km/h (2 Bft) NW 325 0 min 7,8 C 13,6 C
15.09.2012 18:04 16,1 C 58 % 1017,7 hPa 0,0 l/m 9,2 km/h (2 Bft) NW 315 0 min 7,8 C 14,7 C
15.09.2012 18:09 16,1 C 58 % 1017,7 hPa 0,0 l/m 9,2 km/h (2 Bft) NW 315 0 min 7,8 C 14,7 C
15.09.2012 18:14 16,1 C 59 % 1017,7 hPa 0,0 l/m 5,4 km/h (1 Bft) W 275 0 min 8,1 C 16,1 C
15.09.2012 18:19 16,2 C 59 % 1017,7 hPa 0,0 l/m 0,7 km/h (0 Bft) W-SW 250 0 min 8,2 C 16,2 C
15.09.2012 18:24 16,2 C 59 % 1017,7 hPa 0,0 l/m 0,0 km/h (0 Bft) W-SW 250 0 min 8,2 C 16,2 C
15.09.2012 18:29 16,3 C 59 % 1017,7 hPa 0,0 l/m 0,2 km/h (0 Bft) W-SW 245 0 min 8,3 C 16,3 C
15.09.2012 18:34 16,3 C 59 % 1017,7 hPa 0,0 l/m 0,0 km/h (0 Bft) W-SW 245 0 min 8,3 C 16,3 C
15.09.2012 18:39 16,3 C 59 % 1017,7 hPa 0,0 l/m 0,2 km/h (0 Bft) W-SW 245 0 min 8,3 C 16,3 C
15.09.2012 18:44 16,1 C 59 % 1017,7 hPa 0,0 l/m 4,3 km/h (1 Bft) SW 220 0 min 8,1 C 16,1 C
15.09.2012 18:49 15,8 C 60 % 1017,7 hPa 0,0 l/m 0,1 km/h (0 Bft) SW 230 0 min 8,1 C 15,8 C
15.09.2012 18:54 15,7 C 60 % 1017,7 hPa 0,0 l/m 0,8 km/h (0 Bft) SW 230 0 min 8,0 C 15,7 C
15.09.2012 18:59 15,6 C 60 % 1017,7 hPa 0,0 l/m 0,0 km/h (0 Bft) S-SW 210 0 min 7,9 C 15,6 C
15.09.2012 19:04 15,6 C 61 % 1017,7 hPa 0,0 l/m 0,0 km/h (0 Bft) S-SW 210 0 min 8,1 C 15,6 C
15.09.2012 19:09 15,6 C 61 % 1017,7 hPa 0,0 l/m 0,0 km/h (0 Bft) S-SW 210 0 min 8,1 C 15,6 C
15.09.2012 19:14 15,5 C 61 % 1017,7 hPa 0,0 l/m 0,0 km/h (0 Bft) S-SW 210 0 min 8,0 C 15,5 C
15.09.2012 19:19 15,4 C 61 % 1017,7 hPa 0,0 l/m 0,0 km/h (0 Bft) S-SW 210 0 min 7,9 C 15,4 C
15.09.2012 19:24 15,2 C 61 % 1017,7 hPa 0,0 l/m 0,0 km/h (0 Bft) S-SW 210 0 min 7,7 C 15,2 C
15.09.2012 19:29 15,2 C 61 % 1017,7 hPa 0,0 l/m 0,0 km/h (0 Bft) S-SW 205 0 min 7,7 C 15,2 C
15.09.2012 19:34 15,0 C 61 % 1017,7 hPa 0,0 l/m 0,0 km/h (0 Bft) S-SW 205 0 min 7,5 C 15,0 C
15.09.2012 19:39 14,8 C 62 % 1017,7 hPa 0,0 l/m 0,0 km/h (0 Bft) S-SW 205 0 min 7,6 C 14,8 C
15.09.2012 19:44 14,6 C 62 % 1017,7 hPa 0,0 l/m 0,0 km/h (0 Bft) S-SW 205 0 min 7,4 C 14,6 C
15.09.2012 19:49 14,5 C 62 % 1017,7 hPa 0,0 l/m 0,0 km/h (0 Bft) S-SW 205 0 min 7,3 C 14,5 C
15.09.2012 19:54 14,3 C 63 % 1017,7 hPa 0,0 l/m 0,0 km/h (0 Bft) S-SW 205 0 min 7,4 C 14,3 C
15.09.2012 19:59 14,1 C 63 % 1017,7 hPa 0,0 l/m 0,0 km/h (0 Bft) S-SW 205 0 min 7,2 C 14,1 C
15.09.2012 20:04 14,1 C 63 % 1017,7 hPa 0,0 l/m 0,0 km/h (0 Bft) S-SW 205 0 min 7,2 C 14,1 C
15.09.2012 20:09 13,9 C 64 % 1017,7 hPa 0,0 l/m 0,0 km/h (0 Bft) S-SW 205 0 min 7,2 C 13,9 C
15.09.2012 20:14 13,8 C 64 % 1018,7 hPa 0,0 l/m 0,0 km/h (0 Bft) S-SW 205 0 min 7,1 C 13,8 C
15.09.2012 20:19 13,7 C 65 % 1018,7 hPa 0,0 l/m 0,0 km/h (0 Bft) S-SW 205 0 min 7,2 C 13,7 C
15.09.2012 20:24 13,5 C 65 % 1018,7 hPa 0,0 l/m 0,0 km/h (0 Bft) S-SW 210 0 min 7,1 C 13,5 C
15.09.2012 20:29 13,3 C 65 % 1018,7 hPa 0,0 l/m 0,0 km/h (0 Bft) S-SW 210 0 min 6,9 C 13,3 C
15.09.2012 20:34 13,2 C 65 % 1018,7 hPa 0,0 l/m 0,0 km/h (0 Bft) S-SW 210 0 min 6,8 C 13,2 C
15.09.2012 20:38 13,0 C 65 % 1018,7 hPa 0,0 l/m 0,0 km/h (0 Bft) S-SW 205 0 min 6,6 C 13,0 C
15.09.2012 20:44 12,8 C 66 % 1018,7 hPa 0,0 l/m 0,0 km/h (0 Bft) S-SW 210 0 min 6,6 C 12,8 C
15.09.2012 20:49 12,6 C 66 % 1018,7 hPa 0,0 l/m 0,0 km/h (0 Bft) S-SW 210 0 min 6,4 C 12,6 C
15.09.2012 20:54 12,5 C 66 % 1018,7 hPa 0,0 l/m 0,0 km/h (0 Bft) S-SW 210 0 min 6,3 C 12,5 C
15.09.2012 20:59 12,5 C 66 % 1018,7 hPa 0,0 l/m 0,0 km/h (0 Bft) S-SW 210 0 min 6,3 C 12,5 C
15.09.2012 21:04 12,3 C 67 % 1018,7 hPa 0,0 l/m 0,0 km/h (0 Bft) S-SW 210 0 min 6,4 C 12,3 C
15.09.2012 21:09 12,3 C 67 % 1018,7 hPa 0,0 l/m 0,0 km/h (0 Bft) S-SW 210 0 min 6,4 C 12,3 C
15.09.2012 21:14 12,1 C 67 % 1018,7 hPa 0,0 l/m 0,0 km/h (0 Bft) S-SW 205 0 min 6,2 C 12,1 C
15.09.2012 21:19 12,0 C 67 % 1018,7 hPa 0,0 l/m 0,0 km/h (0 Bft) S-SW 205 0 min 6,1 C 12,0 C
15.09.2012 21:24 12,0 C 67 % 1018,7 hPa 0,0 l/m 0,0 km/h (0 Bft) S-SW 205 0 min 6,1 C 12,0 C
15.09.2012 21:29 11,9 C 68 % 1018,7 hPa 0,0 l/m 0,0 km/h (0 Bft) S-SW 205 0 min 6,2 C 11,9 C
15.09.2012 21:34 11,7 C 68 % 1018,7 hPa 0,0 l/m 0,0 km/h (0 Bft) S-SW 205 0 min 6,0 C 11,7 C
15.09.2012 21:39 11,7 C 68 % 1018,7 hPa 0,0 l/m 0,0 km/h (0 Bft) S-SW 205 0 min 6,0 C 11,7 C
15.09.2012 21:44 11,5 C 68 % 1018,7 hPa 0,0 l/m 0,0 km/h (0 Bft) S-SW 205 0 min 5,8 C 11,5 C
15.09.2012 21:49 11,2 C 68 % 1018,7 hPa 0,0 l/m 0,0 km/h (0 Bft) S-SW 205 0 min 5,5 C 11,2 C
15.09.2012 21:54 11,0 C 68 % 1018,7 hPa 0,0 l/m 0,0 km/h (0 Bft) S-SW 205 0 min 5,3 C 11,0 C
15.09.2012 21:59 11,0 C 68 % 1018,7 hPa 0,0 l/m 0,0 km/h (0 Bft) S-SW 205 0 min 5,3 C 11,0 C
15.09.2012 22:04 10,8 C 69 % 1018,7 hPa 0,0 l/m 0,0 km/h (0 Bft) S-SW 205 0 min 5,3 C 10,8 C
15.09.2012 22:09 10,7 C 69 % 1018,7 hPa 0,0 l/m 0,0 km/h (0 Bft) S-SW 210 0 min 5,2 C 10,7 C
15.09.2012 22:14 10,6 C 70 % 1018,7 hPa 0,0 l/m 0,0 km/h (0 Bft) S-SW 205 0 min 5,4 C 10,6 C
15.09.2012 22:19 10,3 C 70 % 1018,7 hPa 0,0 l/m 0,0 km/h (0 Bft) S-SW 205 0 min 5,1 C 10,3 C
15.09.2012 22:24 10,1 C 70 % 1018,7 hPa 0,0 l/m 0,0 km/h (0 Bft) SW 215 0 min 4,9 C 10,1 C
15.09.2012 22:28 10,1 C 70 % 1018,7 hPa 0,0 l/m 0,0 km/h (0 Bft) S-SW 210 0 min 4,9 C 10,1 C
15.09.2012 22:34 10,1 C 70 % 1018,7 hPa 0,0 l/m 0,0 km/h (0 Bft) S-SW 210 0 min 4,9 C 10,1 C
15.09.2012 22:39 10,0 C 70 % 1018,7 hPa 0,0 l/m 0,0 km/h (0 Bft) S-SW 210 0 min 4,8 C 10,0 C
15.09.2012 22:44 9,9 C 71 % 1018,7 hPa 0,0 l/m 0,0 km/h (0 Bft) S-SW 210 0 min 4,9 C 9,9 C
15.09.2012 22:49 9,8 C 71 % 1018,7 hPa 0,0 l/m 0,0 km/h (0 Bft) SW 220 0 min 4,8 C 9,8 C
15.09.2012 22:54 9,8 C 72 % 1018,7 hPa 0,0 l/m 0,0 km/h (0 Bft) SW 215 0 min 5,0 C 9,8 C
15.09.2012 22:59 9,6 C 72 % 1018,7 hPa 0,0 l/m 0,0 km/h (0 Bft) SW 215 0 min 4,8 C 9,6 C
15.09.2012 23:04 9,5 C 72 % 1018,7 hPa 0,0 l/m 0,0 km/h (0 Bft) SW 215 0 min 4,7 C 9,5 C
15.09.2012 23:09 9,5 C 72 % 1018,7 hPa 0,0 l/m 0,0 km/h (0 Bft) SW 215 0 min 4,7 C 9,5 C
15.09.2012 23:14 9,5 C 72 % 1018,7 hPa 0,0 l/m 0,0 km/h (0 Bft) S-SW 210 0 min 4,7 C 9,5 C
15.09.2012 23:19 9,5 C 72 % 1018,7 hPa 0,0 l/m 0,0 km/h (0 Bft) S-SW 210 0 min 4,7 C 9,5 C
15.09.2012 23:24 9,3 C 72 % 1018,7 hPa 0,0 l/m 0,0 km/h (0 Bft) S-SW 210 0 min 4,5 C 9,3 C
15.09.2012 23:29 9,3 C 72 % 1018,7 hPa 0,0 l/m 0,0 km/h (0 Bft) S-SW 210 0 min 4,5 C 9,3 C
15.09.2012 23:34 9,2 C 72 % 1018,7 hPa 0,0 l/m 0,0 km/h (0 Bft) S-SW 210 0 min 4,4 C 9,2 C
15.09.2012 23:39 9,1 C 72 % 1018,7 hPa 0,0 l/m 0,0 km/h (0 Bft) S-SW 210 0 min 4,3 C 9,1 C
15.09.2012 23:44 9,1 C 72 % 1018,7 hPa 0,0 l/m 0,0 km/h (0 Bft) S-SW 210 0 min 4,3 C 9,1 C
15.09.2012 23:49 9,0 C 72 % 1018,7 hPa 0,0 l/m 0,0 km/h (0 Bft) S-SW 210 0 min 4,2 C 9,0 C
15.09.2012 23:54 9,0 C 72 % 1018,7 hPa 0,0 l/m 0,0 km/h (0 Bft) S-SW 210 0 min 4,2 C 9,0 C
15.09.2012 23:59 8,9 C 74 % 1018,7 hPa 0,0 l/m 0,0 km/h (0 Bft) S-SW 210 0 min 4,5 C 8,9 C
_ Min-Zeit 00:04 16:49 00:04 - 00:04 - - - 23:49 23:59
Minimum _ 0,0 C 47 % 1012,7 hPa - 0,0 km/h (0 Bft) - - - 4,2 C 8,9 C
_ Max-Zeit 16:54 09:09 20:14 05:54 13:14 - - 00:04 11:19 16:44
Maximum _ 20,3 C 84 % 1018,7 hPa 0,4 l/m 19,8 km/h
NW (3 Bft)
- - 0 min 11,2 C 19,8 C
Durchschnitt _ 13,2 C 71 % 1016,7 hPa #0,4 l/m 3,7 km/h (1 Bft) W - #0 min. 7,8 C 12,7 C